Time;durP1;ratioP1;P1;durP2;ratioP2;P2;SDS_P1;SDS_P2;PMS_P1;PMS_P2;Temp;Humidity;BMP_temperature;BMP_pressure;BME280_temperature;BME280_humidity;BME280_pressure;Samples;Min_cycle;Max_cycle;Signal;HPM_P1;HPM_P2
2021/04/26 00:00:17;;;;;;;;;;;13.30;82.10;;;;;;5011969;28;77061;-70
2021/04/26 00:02:43;;;;;;;;;;;13.30;82.10;;;;;;5013776;28;74433;-71
2021/04/26 00:05:09;;;;;;;;;;;13.30;82.20;;;;;;5012475;28;76371;-71
2021/04/26 00:07:35;;;;;;;;;;;13.30;82.10;;;;;;5013754;28;75191;-70
2021/04/26 00:10:00;;;;;;;;;;;13.30;82.10;;;;;;5013040;28;77096;-73
2021/04/26 00:12:26;;;;;;;;;;;13.20;82.20;;;;;;5011845;28;74821;-77
2021/04/26 00:14:52;;;;;;;;;;;13.30;82.30;;;;;;5013784;28;76299;-76
2021/04/26 00:17:18;;;;;;;;;;;13.30;82.10;;;;;;5013714;28;75278;-77
2021/04/26 00:19:44;;;;;;;;;;;13.30;82.20;;;;;;5011880;28;75588;-74
2021/04/26 00:22:10;;;;;;;;;;;13.30;82.10;;;;;;5012148;28;76124;-72
2021/04/26 00:24:36;;;;;;;;;;;13.30;82.10;;;;;;5013886;28;74449;-72
2021/04/26 00:27:02;;;;;;;;;;;13.30;82.10;;;;;;5011776;28;77499;-71
2021/04/26 00:29:27;;;;;;;;;;;13.30;82.10;;;;;;5013873;28;74448;-73
2021/04/26 00:31:53;;;;;;;;;;;13.30;82.10;;;;;;5012473;28;75424;-70
2021/04/26 00:34:19;;;;;;;;;;;13.30;82.00;;;;;;5013527;28;75227;-69
2021/04/26 00:36:44;;;;;;;;;;;13.30;82.00;;;;;;5011773;28;76774;-71
2021/04/26 00:39:10;;;;;;;;;;;13.30;82.00;;;;;;5011681;28;75260;-71
2021/04/26 00:41:36;;;;;;;;;;;13.30;82.10;;;;;;5013301;28;74491;-71
2021/04/26 00:44:01;;;;;;;;;;;13.30;82.10;;;;;;5011800;28;75715;-70
2021/04/26 00:46:27;;;;;;;;;;;13.30;82.10;;;;;;5013794;28;74455;-74
2021/04/26 00:48:53;;;;;;;;;;;13.30;82.20;;;;;;5013115;28;75130;-69
2021/04/26 00:51:18;;;;;;;;;;;13.40;82.30;;;;;;5011778;28;75495;-68
2021/04/26 00:53:44;;;;;;;;;;;13.40;82.30;;;;;;5013510;28;75648;-69
2021/04/26 00:56:10;;;;;;;;;;;13.40;82.20;;;;;;5011646;28;75131;-70
2021/04/26 00:58:35;;;;;;;;;;;13.40;82.20;;;;;;5011294;28;77059;-70
2021/04/26 01:01:01;;;;;;;;;;;13.40;82.20;;;;;;5012991;28;74546;-72
2021/04/26 01:03:27;;;;;;;;;;;13.30;82.30;;;;;;5013532;28;75838;-76
2021/04/26 01:05:52;;;;;;;;;;;13.40;82.30;;;;;;5011415;28;75402;-76
2021/04/26 01:08:19;;;;;;;;;;;13.40;82.40;;;;;;5013004;28;75157;-75
2021/04/26 01:10:45;;;;;;;;;;;13.40;82.40;;;;;;5011616;28;77038;-75
2021/04/26 01:13:28;;;;;;;;;;;13.40;82.40;;;;;;5011373;28;75892;-76
2021/04/26 01:16:08;;;;;;;;;;;13.40;82.40;;;;;;5011627;28;74645;-70
2021/04/26 01:18:38;;;;;;;;;;;13.40;82.30;;;;;;5011230;28;75581;-70
2021/04/26 01:21:22;;;;;;;;;;;13.40;82.30;;;;;;5011170;28;77675;-69
2021/04/26 01:24:00;;;;;;;;;;;13.40;82.20;;;;;;5011030;28;76581;-70
2021/04/26 01:26:29;;;;;;;;;;;13.40;82.20;;;;;;5010708;28;77245;-69
2021/04/26 01:28:58;;;;;;;;;;;13.40;82.10;;;;;;5010564;28;77227;-72
2021/04/26 01:31:29;;;;;;;;;;;13.30;82.10;;;;;;5011298;28;76207;-68
2021/04/26 01:33:58;;;;;;;;;;;13.30;82.10;;;;;;5010484;28;77055;-70
2021/04/26 01:36:26;;;;;;;;;;;13.30;82.20;;;;;;5011270;28;77233;-71
2021/04/26 01:38:52;;;;;;;;;;;13.20;82.30;;;;;;5012492;28;74541;-72
2021/04/26 01:41:20;;;;;;;;;;;13.20;82.30;;;;;;5010680;28;77665;-72
2021/04/26 01:43:46;;;;;;;;;;;13.20;82.30;;;;;;5012376;28;75357;-72
2021/04/26 01:46:12;;;;;;;;;;;13.20;82.30;;;;;;5010931;28;75362;-71
2021/04/26 01:48:40;;;;;;;;;;;13.20;82.30;;;;;;5012295;28;75428;-70
2021/04/26 01:51:06;;;;;;;;;;;13.20;82.30;;;;;;5012704;28;75873;-72
2021/04/26 01:53:32;;;;;;;;;;;13.20;82.30;;;;;;5012608;28;75099;-71
2021/04/26 01:55:59;;;;;;;;;;;13.20;82.20;;;;;;5010510;28;75114;-71
2021/04/26 01:58:25;;;;;;;;;;;13.10;82.30;;;;;;5012344;28;75070;-73
2021/04/26 02:00:51;;;;;;;;;;;13.10;82.20;;;;;;5010118;28;77346;-75
2021/04/26 02:03:22;;;;;;;;;;;13.00;82.20;;;;;;5012011;28;75130;-68
2021/04/26 02:05:49;;;;;;;;;;;13.00;82.30;;;;;;5010480;28;77181;-70
2021/04/26 02:08:15;;;;;;;;;;;13.00;82.30;;;;;;5011742;28;75013;-68
2021/04/26 02:10:41;;;;;;;;;;;13.00;82.30;;;;;;5010329;28;77957;-71
2021/04/26 02:13:07;;;;;;;;;;;13.00;82.30;;;;;;5010300;28;75339;-69
2021/04/26 02:15:33;;;;;;;;;;;13.00;82.30;;;;;;5012663;28;74446;-70
2021/04/26 02:17:59;;;;;;;;;;;13.00;82.40;;;;;;5012064;28;75212;-75
2021/04/26 02:20:24;;;;;;;;;;;12.90;82.40;;;;;;5010371;28;77337;-72
2021/04/26 02:22:51;;;;;;;;;;;13.00;82.50;;;;;;5010509;28;74744;-74
2021/04/26 02:25:17;;;;;;;;;;;13.00;82.50;;;;;;5011816;28;75332;-70
2021/04/26 02:27:43;;;;;;;;;;;13.00;82.60;;;;;;5010172;28;77667;-74
2021/04/26 02:30:09;;;;;;;;;;;13.10;82.60;;;;;;5011637;28;75886;-73
2021/04/26 02:32:42;;;;;;;;;;;13.00;82.60;;;;;;5011562;28;76976;-73
2021/04/26 02:35:09;;;;;;;;;;;13.00;82.60;;;;;;5011649;28;75664;-68
2021/04/26 02:37:38;;;;;;;;;;;13.00;82.70;;;;;;5011143;28;77985;-74
2021/04/26 02:40:06;;;;;;;;;;;13.00;82.80;;;;;;5011137;28;75491;-68
2021/04/26 02:42:33;;;;;;;;;;;13.00;82.80;;;;;;5010567;28;77312;-69
2021/04/26 02:45:00;;;;;;;;;;;13.00;82.80;;;;;;5003319;28;75285;-68
2021/04/26 02:47:27;;;;;;;;;;;13.10;82.80;;;;;;4990527;28;77489;-68
2021/04/26 02:49:53;;;;;;;;;;;13.10;82.80;;;;;;4992674;28;75067;-69
2021/04/26 02:52:19;;;;;;;;;;;13.00;82.70;;;;;;4991450;28;75655;-72
2021/04/26 02:54:45;;;;;;;;;;;13.00;82.80;;;;;;4993379;28;74679;-70
2021/04/26 02:57:11;;;;;;;;;;;13.00;82.90;;;;;;4994291;28;77959;-72
2021/04/26 02:59:37;;;;;;;;;;;13.00;82.90;;;;;;4996435;28;74449;-73
2021/04/26 03:02:03;;;;;;;;;;;13.00;83.00;;;;;;4995524;28;78084;-72
2021/04/26 03:04:30;;;;;;;;;;;13.00;83.10;;;;;;4993300;28;77869;-73
2021/04/26 03:06:56;;;;;;;;;;;13.00;83.10;;;;;;4992870;28;75526;-73
2021/04/26 03:09:22;;;;;;;;;;;13.10;83.10;;;;;;4993254;28;76559;-74
2021/04/26 03:11:50;;;;;;;;;;;13.10;83.10;;;;;;4994280;28;75135;-72
2021/04/26 03:14:17;;;;;;;;;;;13.00;83.10;;;;;;4993462;28;75420;-70
2021/04/26 03:16:43;;;;;;;;;;;13.10;83.10;;;;;;4994303;28;75050;-72
2021/04/26 03:19:08;;;;;;;;;;;13.10;83.10;;;;;;4992854;28;76452;-69
2021/04/26 03:21:35;;;;;;;;;;;13.10;83.00;;;;;;4993244;28;76291;-70
2021/04/26 03:24:01;;;;;;;;;;;13.10;83.00;;;;;;4992680;28;74565;-70
2021/04/26 03:26:29;;;;;;;;;;;13.10;83.10;;;;;;4992617;28;77924;-71
2021/04/26 03:28:55;;;;;;;;;;;13.10;83.00;;;;;;4994024;28;74972;-72
2021/04/26 03:31:21;;;;;;;;;;;13.20;83.00;;;;;;4994488;28;75114;-70
2021/04/26 03:33:47;;;;;;;;;;;13.10;83.00;;;;;;4993760;28;75850;-70
2021/04/26 03:36:14;;;;;;;;;;;13.20;83.00;;;;;;4994367;28;75185;-69
2021/04/26 03:38:43;;;;;;;;;;;13.10;82.90;;;;;;4994282;28;75180;-70
2021/04/26 03:41:09;;;;;;;;;;;13.20;82.90;;;;;;4992320;28;75362;-71
2021/04/26 03:43:34;;;;;;;;;;;13.20;82.90;;;;;;4993005;28;77976;-69
2021/04/26 03:46:00;;;;;;;;;;;13.20;82.80;;;;;;4994267;28;74606;-70
2021/04/26 03:48:26;;;;;;;;;;;13.20;82.60;;;;;;4992972;28;77631;-69
2021/04/26 03:50:51;;;;;;;;;;;13.10;82.50;;;;;;4993980;28;74571;-70
2021/04/26 03:53:17;;;;;;;;;;;13.10;82.60;;;;;;4994400;28;74418;-69
2021/04/26 03:55:43;;;;;;;;;;;13.10;82.60;;;;;;4992619;28;75369;-69
2021/04/26 03:58:09;;;;;;;;;;;13.10;82.60;;;;;;4992166;28;75382;-69
2021/04/26 04:00:35;;;;;;;;;;;13.10;82.60;;;;;;4993642;28;75152;-69
2021/04/26 04:03:07;;;;;;;;;;;13.00;82.60;;;;;;4992196;28;75213;-69
2021/04/26 04:05:33;;;;;;;;;;;13.10;82.70;;;;;;5002549;28;74695;-71
2021/04/26 04:07:58;;;;;;;;;;;13.10;82.60;;;;;;5012324;28;77265;-70
2021/04/26 04:10:24;;;;;;;;;;;13.10;82.50;;;;;;5013823;28;75193;-71
2021/04/26 04:12:50;;;;;;;;;;;13.10;82.60;;;;;;5012026;28;78274;-72
2021/04/26 04:15:15;;;;;;;;;;;13.10;82.70;;;;;;5011902;28;75425;-72
2021/04/26 04:17:41;;;;;;;;;;;13.00;82.80;;;;;;5012208;28;77283;-72
2021/04/26 04:20:08;;;;;;;;;;;13.10;82.90;;;;;;5013394;28;75211;-69
2021/04/26 04:22:34;;;;;;;;;;;13.10;82.80;;;;;;5012738;28;77265;-68
2021/04/26 04:24:59;;;;;;;;;;;13.10;82.90;;;;;;5012558;28;77053;-69
2021/04/26 04:27:25;;;;;;;;;;;13.10;83.00;;;;;;5011348;28;75251;-69
2021/04/26 04:29:50;;;;;;;;;;;13.10;83.00;;;;;;5012048;28;75547;-68
2021/04/26 04:32:16;;;;;;;;;;;13.10;83.10;;;;;;5011957;28;77580;-69
2021/04/26 04:34:42;;;;;;;;;;;13.10;83.10;;;;;;5012036;28;75767;-69
2021/04/26 04:37:07;;;;;;;;;;;13.20;83.10;;;;;;5013217;28;75172;-70
2021/04/26 04:39:33;;;;;;;;;;;13.20;83.10;;;;;;5013945;28;74395;-70
2021/04/26 04:41:59;;;;;;;;;;;13.20;83.20;;;;;;5011657;28;77941;-69
2021/04/26 04:44:24;;;;;;;;;;;13.20;83.10;;;;;;5011669;28;76286;-69
2021/04/26 04:46:50;;;;;;;;;;;13.20;83.10;;;;;;5011999;28;75697;-68
2021/04/26 04:49:15;;;;;;;;;;;13.20;83.00;;;;;;5011597;28;76918;-70
2021/04/26 04:51:43;;;;;;;;;;;13.20;83.00;;;;;;5011832;28;74643;-68
2021/04/26 04:54:09;;;;;;;;;;;13.20;82.80;;;;;;5013213;28;75335;-68
2021/04/26 04:56:35;;;;;;;;;;;13.20;82.80;;;;;;5012291;28;74941;-69
2021/04/26 04:59:00;;;;;;;;;;;13.20;82.80;;;;;;5013173;28;75152;-68
2021/04/26 05:01:26;;;;;;;;;;;13.20;82.80;;;;;;5012576;28;75192;-70
2021/04/26 05:03:53;;;;;;;;;;;13.20;82.80;;;;;;5013775;28;75553;-69
2021/04/26 05:06:18;;;;;;;;;;;13.30;82.80;;;;;;5011914;28;75502;-68
2021/04/26 05:08:44;;;;;;;;;;;13.20;82.80;;;;;;5013406;28;75705;-72
2021/04/26 05:11:10;;;;;;;;;;;13.30;82.70;;;;;;5013095;28;75890;-72
2021/04/26 05:13:35;;;;;;;;;;;13.20;82.70;;;;;;4995036;28;75804;-70
2021/04/26 05:16:01;;;;;;;;;;;13.20;82.70;;;;;;5012789;28;74635;-73
2021/04/26 05:18:27;;;;;;;;;;;13.20;82.80;;;;;;5012722;28;75389;-71
2021/04/26 05:20:52;;;;;;;;;;;13.20;82.80;;;;;;5012718;28;75153;-72
2021/04/26 05:23:18;;;;;;;;;;;13.20;82.90;;;;;;5012616;28;75122;-71
2021/04/26 05:25:44;;;;;;;;;;;13.20;82.90;;;;;;5012945;28;74852;-74
2021/04/26 05:28:09;;;;;;;;;;;13.20;82.80;;;;;;5012259;28;75259;-74
2021/04/26 05:30:35;;;;;;;;;;;13.20;82.80;;;;;;5012099;28;75188;-76
2021/04/26 05:33:01;;;;;;;;;;;13.20;82.90;;;;;;5010900;28;77650;-69
2021/04/26 05:35:26;;;;;;;;;;;13.30;82.90;;;;;;5012372;28;78029;-71
2021/04/26 05:37:53;;;;;;;;;;;13.30;82.80;;;;;;5007954;28;75901;-68
2021/04/26 05:40:18;;;;;;;;;;;13.30;82.80;;;;;;5013145;28;75541;-67
2021/04/26 05:42:44;;;;;;;;;;;13.30;82.80;;;;;;5030815;28;75764;-66
2021/04/26 05:45:10;;;;;;;;;;;13.30;82.70;;;;;;5032461;28;74685;-68
2021/04/26 05:47:35;;;;;;;;;;;13.30;82.60;;;;;;5013817;28;78375;-69
2021/04/26 05:50:01;;;;;;;;;;;13.30;82.60;;;;;;5012072;28;75692;-67
2021/04/26 05:52:26;;;;;;;;;;;13.30;82.50;;;;;;5006135;28;75218;-67
2021/04/26 05:54:52;;;;;;;;;;;13.40;82.50;;;;;;5010238;28;77231;-68
2021/04/26 05:57:18;;;;;;;;;;;13.30;82.50;;;;;;5009889;28;75757;-68
2021/04/26 05:59:43;;;;;;;;;;;13.30;82.40;;;;;;5010618;28;74772;-67
2021/04/26 06:02:09;;;;;;;;;;;13.30;82.40;;;;;;5010436;28;76356;-68
2021/04/26 06:04:35;;;;;;;;;;;13.30;82.30;;;;;;5011191;28;74647;-68
2021/04/26 06:07:01;;;;;;;;;;;13.20;82.40;;;;;;5011494;28;75327;-72
2021/04/26 06:09:26;;;;;;;;;;;13.30;82.50;;;;;;5010134;28;78421;-73
2021/04/26 06:11:52;;;;;;;;;;;13.30;82.50;;;;;;5011772;28;75081;-74
2021/04/26 06:14:17;;;;;;;;;;;13.30;82.50;;;;;;5012005;28;75240;-68
2021/04/26 06:16:43;;;;;;;;;;;13.30;82.50;;;;;;5010626;28;75704;-62
2021/04/26 06:19:09;;;;;;;;;;;13.40;82.40;;;;;;5012235;28;74767;-62
2021/04/26 06:21:34;;;;;;;;;;;13.40;82.40;;;;;;5010107;28;76747;-68
2021/04/26 06:24:00;;;;;;;;;;;13.40;82.40;;;;;;4991842;28;77990;-63
2021/04/26 06:26:26;;;;;;;;;;;13.40;82.50;;;;;;4999796;28;75259;-68
2021/04/26 06:28:52;;;;;;;;;;;13.40;82.40;;;;;;5008577;28;75167;-62
2021/04/26 06:31:17;;;;;;;;;;;13.50;82.30;;;;;;5012947;28;75091;-63
2021/04/26 06:33:43;;;;;;;;;;;13.40;82.30;;;;;;5011733;28;77330;-65
2021/04/26 06:36:09;;;;;;;;;;;13.40;82.20;;;;;;5013489;28;75265;-65
2021/04/26 06:38:34;;;;;;;;;;;13.50;82.20;;;;;;5011882;28;75800;-63
2021/04/26 06:41:00;;;;;;;;;;;13.50;82.20;;;;;;5024329;28;74845;-62
2021/04/26 06:43:26;;;;;;;;;;;13.50;82.10;;;;;;5014915;28;75193;-63
2021/04/26 06:45:51;;;;;;;;;;;13.50;82.00;;;;;;5012689;28;74590;-65
2021/04/26 06:48:17;;;;;;;;;;;13.60;81.90;;;;;;5011556;28;78051;-64
2021/04/26 06:50:46;;;;;;;;;;;13.50;81.90;;;;;;5013724;28;75066;-64
2021/04/26 06:53:12;;;;;;;;;;;13.50;82.00;;;;;;5013476;28;76718;-63
2021/04/26 06:55:38;;;;;;;;;;;13.50;82.10;;;;;;5014293;28;74646;-64
2021/04/26 06:58:03;;;;;;;;;;;13.50;82.10;;;;;;5014566;28;75850;-63
2021/04/26 07:00:29;;;;;;;;;;;13.50;82.00;;;;;;5013353;28;74611;-62
2021/04/26 07:02:55;;;;;;;;;;;13.50;81.90;;;;;;5013046;28;75804;-65
2021/04/26 07:05:21;;;;;;;;;;;13.50;82.00;;;;;;5012787;28;76212;-62
2021/04/26 07:07:47;;;;;;;;;;;13.60;82.00;;;;;;5013598;28;75260;-64
2021/04/26 07:10:13;;;;;;;;;;;13.70;82.10;;;;;;5014262;28;75843;-68
2021/04/26 07:12:39;;;;;;;;;;;13.70;81.90;;;;;;5012731;28;76582;-64
2021/04/26 07:15:05;;;;;;;;;;;13.80;81.80;;;;;;5018821;28;75210;-64
2021/04/26 07:17:31;;;;;;;;;;;13.80;81.40;;;;;;5013368;28;75659;-62
2021/04/26 07:19:57;;;;;;;;;;;13.80;81.00;;;;;;5012215;28;75310;-64
2021/04/26 07:22:23;;;;;;;;;;;13.70;80.80;;;;;;5014568;28;75083;-70
2021/04/26 07:24:49;;;;;;;;;;;13.70;81.10;;;;;;5014271;28;75151;-63
2021/04/26 07:27:15;;;;;;;;;;;13.70;81.20;;;;;;5013650;28;75105;-64
2021/04/26 07:29:41;;;;;;;;;;;13.80;81.40;;;;;;5012076;28;75632;-64
2021/04/26 07:32:06;;;;;;;;;;;13.90;81.00;;;;;;5009330;28;76427;-64
2021/04/26 07:34:32;;;;;;;;;;;13.90;81.00;;;;;;5002656;28;75231;-64
2021/04/26 07:36:58;;;;;;;;;;;14.00;80.90;;;;;;5001354;28;74989;-64
2021/04/26 07:39:23;;;;;;;;;;;14.00;80.60;;;;;;5001906;28;77794;-65
2021/04/26 07:41:49;;;;;;;;;;;14.10;80.30;;;;;;5001105;28;76941;-63
2021/04/26 07:44:15;;;;;;;;;;;14.10;80.20;;;;;;5001245;28;74743;-63
2021/04/26 07:46:40;;;;;;;;;;;14.20;80.20;;;;;;5010012;28;76969;-62
2021/04/26 07:49:06;;;;;;;;;;;14.20;80.00;;;;;;5005710;28;76423;-64
2021/04/26 07:51:32;;;;;;;;;;;14.20;79.80;;;;;;4999838;28;78033;-62
2021/04/26 07:53:57;;;;;;;;;;;14.20;79.70;;;;;;5003370;28;75191;-61
2021/04/26 07:56:23;;;;;;;;;;;14.20;79.40;;;;;;5000781;28;77399;-64
2021/04/26 07:58:49;;;;;;;;;;;14.10;79.40;;;;;;4999262;28;76991;-67
2021/04/26 08:01:14;;;;;;;;;;;14.10;79.60;;;;;;4982772;28;76691;-66
2021/04/26 08:03:40;;;;;;;;;;;14.00;79.90;;;;;;5000625;28;76927;-67
2021/04/26 08:06:06;;;;;;;;;;;14.10;80.10;;;;;;5000252;28;75621;-71
2021/04/26 08:08:32;;;;;;;;;;;14.10;80.20;;;;;;5007027;28;75084;-66
2021/04/26 08:10:57;;;;;;;;;;;14.10;80.00;;;;;;5004901;28;76001;-71
2021/04/26 08:13:25;;;;;;;;;;;14.10;80.20;;;;;;5003380;28;75304;-71
2021/04/26 08:15:51;;;;;;;;;;;14.20;80.20;;;;;;4999581;28;77323;-61
2021/04/26 08:18:17;;;;;;;;;;;14.10;80.20;;;;;;5004678;28;75836;-64
2021/04/26 08:20:42;;;;;;;;;;;14.10;80.40;;;;;;5003122;28;75438;-61
2021/04/26 08:23:08;;;;;;;;;;;14.10;80.70;;;;;;5003740;28;76336;-63
2021/04/26 08:25:34;;;;;;;;;;;14.20;80.80;;;;;;4997344;28;77762;-60
2021/04/26 08:27:59;;;;;;;;;;;14.30;80.30;;;;;;5003861;28;77615;-61
2021/04/26 08:30:25;;;;;;;;;;;14.40;80.30;;;;;;5000895;28;76079;-63
2021/04/26 08:32:51;;;;;;;;;;;14.60;79.90;;;;;;5004858;28;77458;-65
2021/04/26 08:35:17;;;;;;;;;;;14.70;79.30;;;;;;5001732;28;76060;-67
2021/04/26 08:37:43;;;;;;;;;;;14.80;78.50;;;;;;5004405;28;75334;-64
2021/04/26 08:40:09;;;;;;;;;;;14.80;78.20;;;;;;5002501;28;74587;-69
2021/04/26 08:42:35;;;;;;;;;;;14.80;77.90;;;;;;5000588;28;74635;-71
2021/04/26 08:45:01;;;;;;;;;;;14.70;77.90;;;;;;5009918;28;74460;-80
2021/04/26 08:47:27;;;;;;;;;;;14.80;78.20;;;;;;5007348;28;75092;-76
2021/04/26 08:49:54;;;;;;;;;;;14.90;78.60;;;;;;5012477;28;74683;-76
2021/04/26 08:52:19;;;;;;;;;;;15.00;77.50;;;;;;5009160;28;74820;-63
2021/04/26 08:54:45;;;;;;;;;;;15.20;77.20;;;;;;5009713;28;77335;-70
2021/04/26 08:57:10;;;;;;;;;;;15.20;77.50;;;;;;5007207;28;75218;-68
2021/04/26 08:59:42;;;;;;;;;;;15.30;75.90;;;;;;5010383;28;75696;-68
2021/04/26 09:02:07;;;;;;;;;;;15.30;76.70;;;;;;5001407;28;76492;-62
2021/04/26 09:04:37;;;;;;;;;;;15.40;76.80;;;;;;5011047;28;77030;-64
2021/04/26 09:07:04;;;;;;;;;;;15.50;76.10;;;;;;5011702;28;75651;-64
2021/04/26 09:09:35;;;;;;;;;;;15.70;76.40;;;;;;5011724;28;74929;-66
2021/04/26 09:12:01;;;;;;;;;;;15.90;75.70;;;;;;5011494;28;75140;-64
2021/04/26 09:14:37;;;;;;;;;;;15.90;74.60;;;;;;5009124;28;76176;-70
2021/04/26 09:17:21;;;;;;;;;;;16.00;74.50;;;;;;5010150;28;74705;-65
2021/04/26 09:19:47;;;;;;;;;;;16.10;74.10;;;;;;4998442;28;76204;-67
2021/04/26 09:22:13;;;;;;;;;;;16.00;72.50;;;;;;5028851;28;75220;-66
2021/04/26 09:24:39;;;;;;;;;;;15.90;72.90;;;;;;5020618;28;76608;-62
2021/04/26 09:27:05;;;;;;;;;;;15.70;74.00;;;;;;5010440;28;77101;-62
2021/04/26 09:29:32;;;;;;;;;;;15.70;74.20;;;;;;5012195;28;75009;-66
2021/04/26 09:32:04;;;;;;;;;;;15.60;74.60;;;;;;5010196;28;76957;-62
2021/04/26 09:34:35;;;;;;;;;;;15.50;74.60;;;;;;5011150;28;76784;-63
2021/04/26 09:37:14;;;;;;;;;;;15.50;74.90;;;;;;5011515;28;74989;-65
2021/04/26 09:39:55;;;;;;;;;;;15.60;74.20;;;;;;5011557;28;75760;-63
2021/04/26 09:42:40;;;;;;;;;;;15.60;72.80;;;;;;5004985;28;77151;-63
2021/04/26 09:45:21;;;;;;;;;;;15.60;73.70;;;;;;5001761;28;75256;-70
2021/04/26 09:47:48;;;;;;;;;;;15.70;73.30;;;;;;5000196;28;76170;-64
2021/04/26 09:50:14;;;;;;;;;;;15.90;72.60;;;;;;5002424;28;75761;-64
2021/04/26 09:52:39;;;;;;;;;;;16.00;72.60;;;;;;5012537;28;74465;-65
2021/04/26 09:55:05;;;;;;;;;;;16.00;71.60;;;;;;5012204;28;74590;-64
2021/04/26 09:57:31;;;;;;;;;;;16.00;71.30;;;;;;5011146;28;75199;-70
2021/04/26 09:59:58;;;;;;;;;;;16.10;71.70;;;;;;5011173;28;74940;-66
2021/04/26 10:02:24;;;;;;;;;;;16.40;72.00;;;;;;5010049;28;75236;-68
2021/04/26 10:04:50;;;;;;;;;;;16.50;70.90;;;;;;5014209;28;75251;-68
2021/04/26 10:07:15;;;;;;;;;;;16.60;70.70;;;;;;5012578;28;75532;-69
2021/04/26 10:09:41;;;;;;;;;;;16.60;70.40;;;;;;5014453;28;75037;-68
2021/04/26 10:12:10;;;;;;;;;;;16.60;70.10;;;;;;5011457;28;77075;-75
2021/04/26 10:14:40;;;;;;;;;;;16.60;69.80;;;;;;5013334;28;77796;-67
2021/04/26 10:17:11;;;;;;;;;;;16.70;68.90;;;;;;5020039;28;75668;-73
2021/04/26 10:19:38;;;;;;;;;;;16.60;68.80;;;;;;5026571;28;77114;-68
2021/04/26 10:22:04;;;;;;;;;;;16.70;69.00;;;;;;5033642;28;75820;-71
2021/04/26 10:24:31;;;;;;;;;;;16.70;68.60;;;;;;5034184;28;75573;-66
2021/04/26 10:27:00;;;;;;;;;;;16.90;69.00;;;;;;5033529;28;75396;-70
2021/04/26 10:29:33;;;;;;;;;;;17.10;68.20;;;;;;5035124;28;75904;-69
2021/04/26 10:32:02;;;;;;;;;;;17.40;67.30;;;;;;5033139;28;77474;-67
2021/04/26 10:34:57;;;;;;;;;;;17.50;66.10;;;;;;5035432;28;75273;-68
2021/04/26 10:37:25;;;;;;;;;;;17.70;66.60;;;;;;5019615;28;75267;-66
2021/04/26 10:39:56;;;;;;;;;;;17.90;65.50;;;;;;5014565;28;74603;-64
2021/04/26 10:42:40;;;;;;;;;;;18.10;64.90;;;;;;5006556;28;76331;-75
2021/04/26 10:45:12;;;;;;;;;;;18.40;63.80;;;;;;5013649;28;78213;-68
2021/04/26 10:47:42;;;;;;;;;;;18.60;62.60;;;;;;5013538;28;77533;-67
2021/04/26 10:50:08;;;;;;;;;;;18.80;62.20;;;;;;5013658;28;77093;-70
2021/04/26 10:52:40;;;;;;;;;;;18.90;59.80;;;;;;5014854;28;75747;-64
2021/04/26 10:55:10;;;;;;;;;;;18.90;62.00;;;;;;5013502;28;77309;-66
2021/04/26 10:57:40;;;;;;;;;;;19.00;61.30;;;;;;5013396;28;75610;-63
2021/04/26 11:00:21;;;;;;;;;;;18.90;61.50;;;;;;5014878;28;74749;-62
2021/04/26 11:02:51;;;;;;;;;;;19.10;60.80;;;;;;5013260;28;74665;-70
2021/04/26 11:05:17;;;;;;;;;;;19.40;61.50;;;;;;5015082;28;75267;-62
2021/04/26 11:07:46;;;;;;;;;;;19.50;58.60;;;;;;5014547;28;75137;-62
2021/04/26 11:10:27;;;;;;;;;;;19.30;58.50;;;;;;5012964;28;77609;-62
2021/04/26 11:12:52;;;;;;;;;;;19.00;59.40;;;;;;5014361;28;74608;-62
2021/04/26 11:15:19;;;;;;;;;;;19.00;59.60;;;;;;5012557;28;77529;-65
2021/04/26 11:17:45;;;;;;;;;;;18.90;60.90;;;;;;5013071;28;75735;-66
2021/04/26 11:20:15;;;;;;;;;;;19.00;61.10;;;;;;5022657;28;75304;-64
2021/04/26 11:22:41;;;;;;;;;;;19.00;60.30;;;;;;5034401;28;75356;-63
2021/04/26 11:25:07;;;;;;;;;;;19.20;60.50;;;;;;5033073;28;77967;-63
2021/04/26 11:27:34;;;;;;;;;;;19.50;59.30;;;;;;5033126;28;75530;-70
2021/04/26 11:29:59;;;;;;;;;;;20.00;58.90;;;;;;5034301;28;75207;-67
2021/04/26 11:32:26;;;;;;;;;;;20.50;57.20;;;;;;5032850;28;77647;-75
2021/04/26 11:34:56;;;;;;;;;;;20.70;53.30;;;;;;5034802;28;75287;-69
2021/04/26 11:37:23;;;;;;;;;;;21.00;54.30;;;;;;5032779;28;75969;-73
2021/04/26 11:39:50;;;;;;;;;;;21.50;53.00;;;;;;5032842;28;77217;-72
2021/04/26 11:42:20;;;;;;;;;;;21.70;51.80;;;;;;5032396;28;76523;-73
2021/04/26 11:44:46;;;;;;;;;;;21.60;52.60;;;;;;5033115;28;77155;-70
2021/04/26 11:47:13;;;;;;;;;;;22.00;52.30;;;;;;5023417;28;75895;-69
2021/04/26 11:49:41;;;;;;;;;;;22.10;50.90;;;;;;5026658;28;74817;-67
2021/04/26 11:52:15;;;;;;;;;;;21.90;51.20;;;;;;5032686;28;74861;-68
2021/04/26 11:54:45;;;;;;;;;;;22.00;50.00;;;;;;5018700;28;77996;-66
2021/04/26 11:57:15;;;;;;;;;;;22.20;49.50;;;;;;5016597;28;75741;-63
2021/04/26 12:00:07;;;;;;;;;;;23.20;48.70;;;;;;5005445;28;75075;-64
2021/04/26 12:02:36;;;;;;;;;;;24.30;43.50;;;;;;5011575;28;77090;-70
2021/04/26 12:05:08;;;;;;;;;;;25.40;43.40;;;;;;5012305;28;75833;-74
2021/04/26 12:07:33;;;;;;;;;;;25.40;42.30;;;;;;5014106;28;74535;-72
2021/04/26 12:10:00;;;;;;;;;;;26.50;41.90;;;;;;5011551;28;75623;-79
2021/04/26 12:12:27;;;;;;;;;;;26.50;39.60;;;;;;5009890;28;76407;-79
2021/04/26 12:14:53;;;;;;;;;;;25.60;42.70;;;;;;5010062;28;76493;-77
2021/04/26 12:17:26;;;;;;;;;;;27.60;37.50;;;;;;5013559;28;75340;-67
2021/04/26 12:19:53;;;;;;;;;;;26.70;40.10;;;;;;5013530;28;74550;-66
2021/04/26 12:22:21;;;;;;;;;;;27.30;38.70;;;;;;5013452;28;75819;-65
2021/04/26 12:24:48;;;;;;;;;;;30.10;33.90;;;;;;5012097;28;77303;-64
2021/04/26 12:27:15;;;;;;;;;;;32.70;31.00;;;;;;5012515;28;75087;-65
2021/04/26 12:29:41;;;;;;;;;;;34.70;28.60;;;;;;5011655;28;77382;-71
2021/04/26 12:32:17;;;;;;;;;;;36.40;28.20;;;;;;5013460;28;75058;-70
2021/04/26 12:35:00;;;;;;;;;;;38.10;25.30;;;;;;5011437;28;74637;-65
2021/04/26 12:37:27;;;;;;;;;;;38.40;24.00;;;;;;5011516;28;77343;-65
2021/04/26 12:39:53;;;;;;;;;;;37.20;25.00;;;;;;5012873;28;75203;-64
2021/04/26 12:42:20;;;;;;;;;;;35.40;27.40;;;;;;5013408;28;74513;-68
2021/04/26 12:44:46;;;;;;;;;;;34.20;28.90;;;;;;5013471;28;75331;-67
2021/04/26 12:47:22;;;;;;;;;;;33.40;30.40;;;;;;5011148;28;76593;-67
2021/04/26 12:49:49;;;;;;;;;;;32.70;30.70;;;;;;5014337;28;77005;-65
2021/04/26 12:52:16;;;;;;;;;;;33.90;29.50;;;;;;5023427;28;75569;-68
2021/04/26 12:54:57;;;;;;;;;;;34.50;29.70;;;;;;5005806;28;78065;-65
2021/04/26 12:57:23;;;;;;;;;;;36.80;26.90;;;;;;5009928;28;77598;-73
2021/04/26 12:59:49;;;;;;;;;;;38.20;22.50;;;;;;5011772;28;77413;-71
2021/04/26 13:02:22;;;;;;;;;;;38.90;25.30;;;;;;5013355;28;74450;-76
2021/04/26 13:04:48;;;;;;;;;;;39.50;22.90;;;;;;4991951;28;78016;-73
2021/04/26 13:07:14;;;;;;;;;;;36.80;25.00;;;;;;4993241;28;75363;-69
2021/04/26 13:09:40;;;;;;;;;;;34.50;27.10;;;;;;5008055;28;76948;-69
2021/04/26 13:12:05;;;;;;;;;;;34.00;27.00;;;;;;4993368;28;75326;-67
2021/04/26 13:14:34;;;;;;;;;;;33.70;27.90;;;;;;4993239;28;75722;-65
2021/04/26 13:17:02;;;;;;;;;;;32.90;29.70;;;;;;4991652;28;77625;-73
2021/04/26 13:19:28;;;;;;;;;;;31.70;30.80;;;;;;5013877;28;77291;-68
2021/04/26 13:21:54;;;;;;;;;;;30.40;30.80;;;;;;4999346;28;75651;-68
2021/04/26 13:24:21;;;;;;;;;;;29.70;33.30;;;;;;5000773;28;75732;-68
2021/04/26 13:26:58;;;;;;;;;;;30.70;29.70;;;;;;4999198;28;75193;-68
2021/04/26 13:29:24;;;;;;;;;;;31.00;28.20;;;;;;5000343;28;75346;-68
2021/04/26 13:31:50;;;;;;;;;;;29.90;30.70;;;;;;5001254;28;75142;-66
2021/04/26 13:34:16;;;;;;;;;;;29.90;31.50;;;;;;5000506;28;76413;-67
2021/04/26 13:36:43;;;;;;;;;;;30.20;31.40;;;;;;4998743;28;75771;-69
2021/04/26 13:39:10;;;;;;;;;;;30.50;30.70;;;;;;4996857;28;75194;-66
2021/04/26 13:41:37;;;;;;;;;;;30.70;29.60;;;;;;4995806;28;77607;-67
2021/04/26 13:44:03;;;;;;;;;;;30.40;29.60;;;;;;4990887;28;77644;-67
2021/04/26 13:46:29;;;;;;;;;;;30.30;30.50;;;;;;4991023;28;76190;-68
2021/04/26 13:48:54;;;;;;;;;;;30.40;30.00;;;;;;4992186;28;75253;-67
2021/04/26 13:51:20;;;;;;;;;;;30.10;30.70;;;;;;4992816;28;75265;-70
2021/04/26 13:53:46;;;;;;;;;;;29.80;30.80;;;;;;4992730;28;75604;-66
2021/04/26 13:56:12;;;;;;;;;;;29.70;32.20;;;;;;4992788;28;75666;-69
2021/04/26 13:58:38;;;;;;;;;;;30.00;32.20;;;;;;5003187;28;75113;-68
2021/04/26 14:01:04;;;;;;;;;;;32.20;31.40;;;;;;5010174;28;77187;-67
2021/04/26 14:03:30;;;;;;;;;;;35.10;27.20;;;;;;5007769;28;77666;-66
2021/04/26 14:05:56;;;;;;;;;;;36.80;24.20;;;;;;5009931;28;74996;-64
2021/04/26 14:08:21;;;;;;;;;;;36.60;23.00;;;;;;5010516;28;77818;-69
2021/04/26 14:10:47;;;;;;;;;;;35.90;23.60;;;;;;5009707;28;77039;-69
2021/04/26 14:13:13;;;;;;;;;;;33.70;26.90;;;;;;5007765;28;75018;-68
2021/04/26 14:15:38;;;;;;;;;;;31.70;27.80;;;;;;5010886;28;74601;-69